Time;durP1;ratioP1;P1;durP2;ratioP2;P2;SDS_P1;SDS_P2;PMS_P1;PMS_P2;Temp;Humidity;BMP_temperature;BMP_pressure;BME280_temperature;BME280_humidity;BME280_pressure;Samples;Min_cycle;Max_cycle;Signal;HPM_P1;HPM_P2
2024/02/20 00:02:15;;;;;;;3.20;1.85;;;;;;;2.64;100.00;98440.97;1224259;75;2927871;-66
2024/02/20 00:04:48;;;;;;;2.90;2.10;;;;;;;2.58;100.00;98435.25;1224681;75;2922729;-64
2024/02/20 00:07:21;;;;;;;2.65;1.70;;;;;;;2.63;100.00;98447.56;1223937;75;2919848;-63
2024/02/20 00:09:54;;;;;;;3.70;1.70;;;;;;;2.38;100.00;98445.84;1224226;75;2917812;-63
2024/02/20 00:12:27;;;;;;;3.25;1.95;;;;;;;2.28;100.00;98452.91;1224642;75;2922446;-61
2024/02/20 00:15:02;;;;;;;2.85;2.20;;;;;;;2.40;100.00;98448.16;1225199;75;2922418;-64
2024/02/20 00:17:35;;;;;;;5.00;2.70;;;;;;;2.10;100.00;98447.66;1224584;75;2920834;-62
2024/02/20 00:20:10;;;;;;;2.80;2.15;;;;;;;2.23;100.00;98447.16;1224700;75;2923961;-63
2024/02/20 00:22:42;;;;;;;2.55;1.80;;;;;;;2.36;100.00;98456.31;1225223;75;2918768;-64
2024/02/20 00:25:15;;;;;;;2.20;1.60;;;;;;;2.17;100.00;98451.47;1224621;75;2921393;-63
2024/02/20 00:27:48;;;;;;;3.40;1.90;;;;;;;2.13;100.00;98446.09;1225152;75;2919731;-63
2024/02/20 00:30:24;;;;;;;2.45;1.75;;;;;;;2.06;100.00;98451.56;1225384;75;2915437;-60
2024/02/20 00:32:57;;;;;;;1.90;1.60;;;;;;;1.84;100.00;98445.56;1224335;75;2925617;-65
2024/02/20 00:35:29;;;;;;;2.45;1.60;;;;;;;2.09;100.00;98448.84;1225257;75;2921883;-64
2024/02/20 00:38:02;;;;;;;1.70;1.40;;;;;;;1.92;100.00;98444.34;1225132;75;2920844;-63
2024/02/20 00:40:35;;;;;;;1.80;1.40;;;;;;;2.07;100.00;98442.31;1225184;75;2917829;-63
2024/02/20 00:43:08;;;;;;;3.95;2.20;;;;;;;1.80;100.00;98453.66;1224029;75;2930843;-62
2024/02/20 00:45:44;;;;;;;3.65;2.10;;;;;;;1.84;100.00;98445.56;1224924;75;2923875;-62
2024/02/20 00:48:17;;;;;;;3.05;2.00;;;;;;;1.99;100.00;98446.22;1224273;75;2924789;-65
2024/02/20 00:50:50;;;;;;;2.55;2.00;;;;;;;1.68;100.00;98457.63;1223869;75;2932984;-62
2024/02/20 00:53:23;;;;;;;2.55;2.00;;;;;;;1.87;100.00;98452.84;1223345;75;2923045;-62
2024/02/20 00:55:55;;;;;;;2.70;1.90;;;;;;;1.76;100.00;98461.06;1224531;75;2926157;-63
2024/02/20 00:58:28;;;;;;;3.70;2.60;;;;;;;1.50;100.00;98448.88;1224713;68;2922004;-63
2024/02/20 01:01:04;;;;;;;4.25;2.95;;;;;;;1.58;100.00;98447.66;1225320;75;2915590;-66
2024/02/20 01:03:36;;;;;;;4.05;2.10;;;;;;;1.66;100.00;98448.38;1224320;75;2925743;-64
2024/02/20 01:06:10;;;;;;;2.35;1.85;;;;;;;1.44;100.00;98447.75;1225207;75;2916356;-63
2024/02/20 01:08:44;;;;;;;3.15;2.30;;;;;;;1.38;100.00;98449.34;1224497;75;2925151;-65
2024/02/20 01:11:16;;;;;;;3.65;2.50;;;;;;;1.57;100.00;98448.06;1224718;75;2920637;-63
2024/02/20 01:13:49;;;;;;;3.20;2.15;;;;;;;1.61;100.00;98446.09;1225264;75;2918601;-63
2024/02/20 01:16:25;;;;;;;1.85;1.60;;;;;;;1.68;100.00;98449.53;1224310;75;2920997;-62
2024/02/20 01:18:57;;;;;;;1.70;1.45;;;;;;;1.56;100.00;98452.69;1224358;75;2922881;-64
2024/02/20 01:21:30;;;;;;;3.90;2.15;;;;;;;1.50;100.00;98451.56;1225167;75;2922957;-64
2024/02/20 01:24:03;;;;;;;3.50;2.20;;;;;;;1.46;100.00;98454.28;1224145;75;2918016;-61
2024/02/20 01:26:36;;;;;;;2.50;1.70;;;;;;;1.56;100.00;98447.28;1224289;75;2920897;-63
2024/02/20 01:29:09;;;;;;;1.75;1.60;;;;;;;1.47;100.00;98446.97;1224555;75;2918737;-64
2024/02/20 01:31:44;;;;;;;1.70;1.50;;;;;;;1.51;100.00;98452.34;1225223;75;2920658;-63
2024/02/20 01:34:17;;;;;;;4.00;2.20;;;;;;;1.33;100.00;98445.13;1224806;75;2916611;-63
2024/02/20 01:36:52;;;;;;;3.50;2.40;;;;;;;1.29;100.00;98444.38;1224978;75;2940926;-62
2024/02/20 01:39:25;;;;;;;3.40;2.15;;;;;;;1.40;100.00;98439.69;1224852;75;2925082;-66
2024/02/20 01:41:59;;;;;;;3.05;1.85;;;;;;;1.37;100.00;98448.56;1224635;75;2924515;-61
2024/02/20 01:44:37;;;;;;;2.45;1.90;;;;;;;1.17;100.00;98442.88;1225736;75;2913505;-66
2024/02/20 01:47:13;;;;;;;2.05;1.60;;;;;;;1.21;100.00;98443.63;1224923;75;2920315;-61
2024/02/20 01:49:46;;;;;;;2.40;1.90;;;;;;;1.33;100.00;98439.72;1225245;75;2924112;-66
2024/02/20 01:52:19;;;;;;;2.85;1.70;;;;;;;1.33;100.00;98434.34;1225866;75;2908392;-61
2024/02/20 01:54:52;;;;;;;1.95;1.70;;;;;;;1.28;100.00;98432.81;1226030;75;2914909;-60
2024/02/20 01:57:25;;;;;;;2.25;1.65;;;;;;;1.22;100.00;98436.31;1224808;75;2924463;-63
2024/02/20 01:59:58;;;;;;;3.15;1.90;;;;;;;1.15;100.00;98431.72;1225123;75;2918284;-63
2024/02/20 02:02:34;;;;;;;3.85;2.35;;;;;;;1.10;100.00;98423.28;1225552;75;2923469;-62
2024/02/20 02:05:07;;;;;;;2.55;2.00;;;;;;;1.37;100.00;98435.09;1224605;75;2922579;-62
2024/02/20 02:07:40;;;;;;;1.90;1.50;;;;;;;1.40;100.00;98438.94;1225568;75;2922030;-63
2024/02/20 02:10:13;;;;;;;2.85;1.50;;;;;;;1.14;100.00;98429.44;1225303;75;2917911;-62
2024/02/20 02:12:46;;;;;;;2.20;1.50;;;;;;;1.28;100.00;98427.41;1225015;75;2920953;-65
2024/02/20 02:15:19;;;;;;;2.45;1.50;;;;;;;1.30;100.00;98431.63;1225314;75;2914191;-65
2024/02/20 02:17:54;;;;;;;2.35;1.40;;;;;;;1.49;100.00;98431.94;1225824;75;2911931;-63
2024/02/20 02:20:27;;;;;;;1.70;1.25;;;;;;;1.51;100.00;98431.50;1224585;75;2920690;-63
2024/02/20 02:23:00;;;;;;;2.70;1.95;;;;;;;1.34;100.00;98429.69;1224270;75;2922370;-64
2024/02/20 02:25:33;;;;;;;2.95;2.00;;;;;;;1.53;100.00;98423.03;1224844;75;2929937;-64
2024/02/20 02:28:09;;;;;;;2.60;1.80;;;;;;;1.69;100.00;98421.38;1224074;75;2931426;-64
2024/02/20 02:30:42;;;;;;;1.95;1.50;;;;;;;1.72;100.00;98419.03;1224575;75;2921564;-63
2024/02/20 02:33:14;;;;;;;3.35;1.70;;;;;;;1.80;100.00;98412.41;1224736;75;2939455;-65
2024/02/20 02:35:48;;;;;;;1.80;1.30;;;;;;;1.71;100.00;98412.88;1224377;75;2922931;-63
2024/02/20 02:38:21;;;;;;;1.40;1.30;;;;;;;1.72;100.00;98392.81;1225514;75;2922694;-64
2024/02/20 02:40:53;;;;;;;1.35;1.10;;;;;;;1.65;100.00;98395.56;1223923;75;2924784;-62
2024/02/20 02:43:29;;;;;;;1.55;1.30;;;;;;;1.53;100.00;98399.50;1224400;75;2920319;-64
2024/02/20 02:46:02;;;;;;;2.25;1.50;;;;;;;1.52;100.00;98414.19;1224573;75;2922561;-64
2024/02/20 02:48:35;;;;;;;1.30;1.05;;;;;;;1.54;100.00;98411.84;1224649;75;2924045;-63
2024/02/20 02:51:09;;;;;;;1.90;1.20;;;;;;;1.44;100.00;98418.84;1223878;75;2916944;-63
2024/02/20 02:53:42;;;;;;;1.70;1.10;;;;;;;1.38;100.00;98417.72;1224685;75;2931608;-63
2024/02/20 02:56:15;;;;;;;1.95;1.20;;;;;;;1.27;100.00;98420.50;1224641;75;2917741;-64
2024/02/20 02:58:50;;;;;;;1.35;1.20;;;;;;;1.31;100.00;98425.09;1225014;75;2931180;-62
2024/02/20 03:01:23;;;;;;;1.20;1.10;;;;;;;1.41;100.00;98430.41;1224916;75;2928319;-61
2024/02/20 03:03:57;;;;;;;2.40;1.40;;;;;;;1.07;100.00;98432.91;1224164;75;2925961;-65
2024/02/20 03:06:30;;;;;;;1.00;0.90;;;;;;;1.32;100.00;98430.09;1224857;75;2922195;-63
2024/02/20 03:09:05;;;;;;;2.90;1.65;;;;;;;1.13;100.00;98436.75;1225044;75;2920357;-63
2024/02/20 03:11:38;;;;;;;2.35;1.90;;;;;;;1.23;100.00;98445.97;1223642;75;2917453;-66
2024/02/20 03:14:14;;;;;;;2.25;2.05;;;;;;;1.31;100.00;98436.66;1226233;75;2909740;-64
2024/02/20 03:16:47;;;;;;;3.55;2.85;;;;;;;1.35;100.00;98440.09;1224646;75;2927421;-64
2024/02/20 03:19:19;;;;;;;6.05;2.75;;;;;;;1.35;100.00;98440.09;1225303;75;2923896;-63
2024/02/20 03:21:53;;;;;;;3.40;2.80;;;;;;;1.31;100.00;98443.97;1224916;75;2920621;-63
2024/02/20 03:24:26;;;;;;;2.70;2.35;;;;;;;1.32;100.00;98437.41;1224739;75;2927308;-62
2024/02/20 03:26:59;;;;;;;2.55;2.15;;;;;;;1.42;100.00;98433.88;1225067;75;2916067;-64
2024/02/20 03:29:34;;;;;;;2.85;2.05;;;;;;;1.56;100.00;98441.13;1225414;75;2927306;-63
2024/02/20 03:32:08;;;;;;;2.45;1.90;;;;;;;1.44;100.00;98445.03;1225077;75;2918739;-63
2024/02/20 03:34:41;;;;;;;2.90;1.90;;;;;;;1.63;100.00;98452.63;1224988;75;2925775;-64
2024/02/20 03:37:14;;;;;;;2.60;1.70;;;;;;;1.71;100.00;98458.78;1224328;75;2922220;-61
2024/02/20 03:39:46;;;;;;;2.85;1.90;;;;;;;1.69;100.00;98453.75;1223241;75;2929284;-63
2024/02/20 03:42:20;;;;;;;2.25;1.85;;;;;;;1.72;100.00;98452.19;1224346;75;2927924;-64
2024/02/20 03:44:55;;;;;;;1.80;1.50;;;;;;;1.81;100.00;98443.66;1224559;75;2922559;-64
2024/02/20 03:47:28;;;;;;;1.65;1.35;;;;;;;1.83;100.00;98447.50;1224198;75;2919993;-60
2024/02/20 03:50:01;;;;;;;2.05;1.40;;;;;;;1.86;100.00;98456.72;1223927;75;2916878;-63
2024/02/20 03:52:33;;;;;;;2.05;1.70;;;;;;;1.79;100.00;98459.47;1223554;75;2921430;-63
2024/02/20 03:55:07;;;;;;;1.95;1.35;;;;;;;1.74;100.00;98463.38;1224747;75;2920191;-62
2024/02/20 03:57:40;;;;;;;3.10;2.00;;;;;;;1.53;100.00;98460.81;1224867;75;2921912;-63
2024/02/20 04:00:17;;;;;;;2.65;1.60;;;;;;;1.67;100.00;98448.00;1224820;75;2920612;-63
2024/02/20 04:02:50;;;;;;;2.30;1.50;;;;;;;1.70;100.00;98449.13;1224688;75;2931643;-63
2024/02/20 04:05:22;;;;;;;1.85;1.40;;;;;;;1.76;100.00;98444.09;1224967;75;2926313;-63
2024/02/20 04:07:55;;;;;;;2.10;1.10;;;;;;;1.64;100.00;98437.22;1224561;75;2927649;-63
2024/02/20 04:10:28;;;;;;;1.50;1.20;;;;;;;1.60;100.00;98445.34;1224162;75;2921525;-62
2024/02/20 04:13:01;;;;;;;2.45;1.60;;;;;;;1.31;100.00;98450.13;1223867;75;2924473;-63
2024/02/20 04:15:37;;;;;;;1.35;1.10;;;;;;;1.39;100.00;98450.88;1225218;75;2921373;-63
2024/02/20 04:18:10;;;;;;;2.10;1.10;;;;;;;1.40;100.00;98458.56;1223744;75;2914349;-64
2024/02/20 04:20:43;;;;;;;1.25;1.10;;;;;;;1.42;100.00;98458.16;1224988;75;2923982;-63
2024/02/20 04:23:16;;;;;;;1.05;0.90;;;;;;;1.47;100.00;98463.94;1224268;75;2927035;-61
2024/02/20 04:25:48;;;;;;;1.65;1.30;;;;;;;1.42;100.00;98453.56;1222821;75;2948900;-62
2024/02/20 04:28:21;;;;;;;2.45;1.60;;;;;;;1.62;100.00;98453.03;1224661;75;2926565;-63
2024/02/20 04:30:57;;;;;;;1.65;1.55;;;;;;;1.67;100.00;98461.47;1224941;75;2923839;-62
2024/02/20 04:33:30;;;;;;;1.30;1.15;;;;;;;1.75;100.00;98451.41;1225563;75;2919273;-63
2024/02/20 04:36:03;;;;;;;2.00;1.30;;;;;;;1.78;100.00;98447.13;1225127;75;2919678;-66
2024/02/20 04:38:36;;;;;;;1.10;1.00;;;;;;;1.85;100.00;98437.06;1222980;75;2922136;-63
2024/02/20 04:41:09;;;;;;;1.20;1.05;;;;;;;1.73;100.00;98429.44;1224745;75;2917207;-63
2024/02/20 04:43:43;;;;;;;1.75;1.20;;;;;;;1.84;100.00;98432.81;1225420;75;2916353;-63
2024/02/20 04:46:19;;;;;;;1.20;1.00;;;;;;;1.66;100.00;98421.38;1224239;75;2921432;-62
2024/02/20 04:48:52;;;;;;;1.85;1.35;;;;;;;1.60;100.00;98436.47;1224743;75;2925183;-63
2024/02/20 04:51:25;;;;;;;2.30;1.75;;;;;;;1.64;100.00;98435.28;1224198;75;2921604;-63
2024/02/20 04:53:57;;;;;;;1.80;1.60;;;;;;;1.65;100.00;98447.63;1224281;75;2924055;-63
2024/02/20 04:56:30;;;;;;;2.15;1.65;;;;;;;1.52;100.00;98443.84;1224641;75;2923072;-65
2024/02/20 04:59:04;;;;;;;1.95;1.45;;;;;;;1.47;100.00;98449.69;1224658;75;2922638;-62
2024/02/20 05:01:40;;;;;;;1.95;1.55;;;;;;;1.41;100.00;98448.53;1223473;75;2919637;-63
2024/02/20 05:04:12;;;;;;;2.35;1.90;;;;;;;1.36;100.00;98447.03;1224595;75;2917774;-62
2024/02/20 05:06:45;;;;;;;3.15;2.55;;;;;;;1.57;100.00;98440.75;1224493;75;2925206;-61
2024/02/20 05:09:18;;;;;;;3.30;2.65;;;;;;;1.32;100.00;98448.19;1224472;75;2920302;-62
2024/02/20 05:11:51;;;;;;;4.20;3.60;;;;;;;1.25;100.00;98446.31;1224636;75;2898839;-63
2024/02/20 05:14:24;;;;;;;3.80;3.15;;;;;;;1.28;100.00;98438.22;1223131;75;2921954;-61
2024/02/20 05:16:59;;;;;;;4.20;2.75;;;;;;;1.43;100.00;98433.50;1224557;75;2926156;-63
2024/02/20 05:19:32;;;;;;;2.95;2.20;;;;;;;1.50;100.00;98440.78;1224479;75;2924452;-61
2024/02/20 05:22:06;;;;;;;4.40;3.65;;;;;;;1.58;100.00;98450.34;1224429;75;2927336;-62
2024/02/20 05:24:41;;;;;;;8.70;6.20;;;;;;;1.60;100.00;98450.72;1223372;75;2919175;-63
2024/02/20 05:27:14;;;;;;;18.70;14.90;;;;;;;1.37;100.00;98445.88;1223556;75;2930153;-62
2024/02/20 05:29:46;;;;;;;15.65;12.10;;;;;;;1.46;100.00;98446.19;1223722;75;2926855;-61
2024/02/20 05:32:22;;;;;;;13.85;10.90;;;;;;;1.59;100.00;98437.63;1224054;75;2923731;-62
2024/02/20 05:34:55;;;;;;;17.60;13.25;;;;;;;1.55;100.00;98445.75;1223819;75;2922618;-65
2024/02/20 05:37:28;;;;;;;16.65;13.45;;;;;;;1.60;100.00;98449.97;1223845;75;2931416;-61
2024/02/20 05:40:01;;;;;;;13.40;10.90;;;;;;;1.58;100.00;98452.28;1225020;75;2917714;-63
2024/02/20 05:42:34;;;;;;;10.55;8.25;;;;;;;1.59;100.00;98454.59;1223987;75;2935264;-63
2024/02/20 05:45:08;;;;;;;6.55;5.10;;;;;;;1.33;100.00;98455.91;1224418;75;2921277;-62
2024/02/20 05:47:45;;;;;;;4.55;3.75;;;;;;;1.40;100.00;98450.47;1224026;75;2928490;-64
2024/02/20 05:50:18;;;;;;;12.30;9.75;;;;;;;1.52;100.00;98435.00;1223390;75;2927910;-63
2024/02/20 05:52:51;;;;;;;13.45;10.10;;;;;;;1.49;100.00;98437.31;1225141;75;2924707;-65
2024/02/20 05:55:24;;;;;;;11.00;7.65;;;;;;;1.48;100.00;98445.81;1223898;75;2932670;-63
2024/02/20 05:57:57;;;;;;;9.95;6.45;;;;;;;1.51;100.00;98445.00;1224341;75;2924701;-64
2024/02/20 06:00:30;;;;;;;6.45;4.45;;;;;;;1.41;100.00;98437.75;1224110;75;2924182;-63
2024/02/20 06:03:05;;;;;;;4.90;3.75;;;;;;;1.37;100.00;98439.69;1224556;75;2920799;-63
2024/02/20 06:05:38;;;;;;;3.90;2.70;;;;;;;1.37;100.00;98445.09;1224781;75;2922475;-62
2024/02/20 06:08:11;;;;;;;3.10;2.30;;;;;;;1.52;100.00;98446.56;1224471;75;2925275;-64
2024/02/20 06:10:44;;;;;;;2.85;2.05;;;;;;;1.52;100.00;98448.50;1223322;75;2923614;-62
2024/02/20 06:13:16;;;;;;;1.90;1.70;;;;;;;1.63;100.00;98465.38;1221896;75;2949758;-63
2024/02/20 06:15:50;;;;;;;2.20;1.80;;;;;;;1.53;100.00;98460.81;1223974;75;2922538;-63
2024/02/20 06:18:25;;;;;;;3.00;1.75;;;;;;;1.63;100.00;98463.44;1223868;75;2928011;-65
2024/02/20 06:20:58;;;;;;;2.25;1.70;;;;;;;1.79;100.00;98471.03;1223268;75;2931712;-62
2024/02/20 06:23:31;;;;;;;1.80;1.50;;;;;;;1.73;100.00;98472.63;1224403;75;2927016;-62
2024/02/20 06:26:04;;;;;;;2.75;2.05;;;;;;;1.81;100.00;98481.47;1222408;75;3025952;-62
2024/02/20 06:28:37;;;;;;;2.05;1.60;;;;;;;1.87;100.00;98469.81;1223369;75;2923164;-65
2024/02/20 06:31:10;;;;;;;2.65;2.00;;;;;;;1.96;100.00;98474.78;1224054;75;2922163;-63
2024/02/20 06:33:47;;;;;;;2.60;1.55;;;;;;;1.94;100.00;98474.41;1223411;75;2923560;-64
2024/02/20 06:36:20;;;;;;;3.00;1.90;;;;;;;2.15;100.00;98470.00;1224283;75;2920261;-63
2024/02/20 06:38:53;;;;;;;2.05;1.80;;;;;;;2.18;100.00;98463.81;1222961;75;2958665;-63
2024/02/20 06:41:26;;;;;;;2.95;2.00;;;;;;;2.18;100.00;98472.66;1223208;75;2935056;-64
2024/02/20 06:44:02;;;;;;;2.70;2.25;;;;;;;2.22;100.00;98475.34;1223618;75;2922650;-60
2024/02/20 06:46:34;;;;;;;3.10;2.60;;;;;;;2.38;100.00;98475.56;1223446;75;2937970;-61
2024/02/20 06:49:10;;;;;;;4.95;3.20;;;;;;;2.18;100.00;98483.47;1224299;75;2934990;-64
2024/02/20 06:51:43;;;;;;;4.80;3.60;;;;;;;2.12;100.00;98474.28;1222837;75;2943162;-63
2024/02/20 06:54:16;;;;;;;4.70;3.40;;;;;;;2.23;100.00;98488.44;1224027;75;2925618;-64
2024/02/20 06:56:49;;;;;;;5.00;3.40;;;;;;;2.27;100.00;98488.44;1224698;75;2924659;-62
2024/02/20 06:59:21;;;;;;;4.10;3.20;;;;;;;2.38;100.00;98497.19;1224089;75;2929325;-61
2024/02/20 07:01:54;;;;;;;4.85;3.05;;;;;;;2.51;100.00;98495.53;1223436;75;2935815;-63
2024/02/20 07:04:30;;;;;;;5.15;3.60;;;;;;;2.53;100.00;98495.16;1223284;75;2927130;-63
2024/02/20 07:07:03;;;;;;;4.75;3.10;;;;;;;2.67;100.00;98499.63;1209621;75;2975227;-62
2024/02/20 07:09:36;;;;;;;4.90;3.45;;;;;;;2.60;100.00;98494.28;1223912;75;2923689;-64
2024/02/20 07:12:09;;;;;;;4.75;3.60;;;;;;;2.63;100.00;98490.81;1223496;75;2919934;-63
2024/02/20 07:14:42;;;;;;;6.40;3.45;;;;;;;2.53;100.00;98495.91;1223695;75;2918604;-62
2024/02/20 07:17:15;;;;;;;8.10;5.35;;;;;;;2.85;100.00;98494.81;1223080;67;2923464;-61
2024/02/20 07:19:51;;;;;;;6.45;4.90;;;;;;;2.89;100.00;98490.16;1223989;75;2929546;-63
2024/02/20 07:22:25;;;;;;;5.35;4.05;;;;;;;3.12;100.00;98502.25;1223183;75;2920747;-63
2024/02/20 07:25:01;;;;;;;4.35;3.45;;;;;;;3.15;100.00;98501.44;1206854;75;4121091;-63
2024/02/20 07:27:34;;;;;;;7.00;3.75;;;;;;;3.12;100.00;98497.59;1222813;75;2945174;-63
2024/02/20 07:30:10;;;;;;;5.85;4.75;;;;;;;3.16;100.00;98501.03;1223317;75;2926651;-63
2024/02/20 07:32:44;;;;;;;5.25;4.00;;;;;;;3.42;100.00;98498.78;1224203;75;2923784;-65
2024/02/20 07:35:20;;;;;;;5.25;3.55;;;;;;;3.48;100.00;98497.16;1224179;75;2923552;-61
2024/02/20 07:37:53;;;;;;;4.80;3.90;;;;;;;3.38;100.00;98504.25;1223750;75;2924686;-66
2024/02/20 07:40:26;;;;;;;3.95;3.25;;;;;;;3.51;100.00;98490.16;1223721;75;2925839;-64
2024/02/20 07:43:00;;;;;;;4.95;3.20;;;;;;;3.67;100.00;98497.69;1223934;75;2922134;-64
2024/02/20 07:45:33;;;;;;;6.25;4.40;;;;;;;3.77;100.00;98494.06;1223275;75;2940464;-64
2024/02/20 07:48:11;;;;;;;4.35;3.50;;;;;;;3.90;100.00;98500.44;1223887;75;2927449;-63
2024/02/20 07:50:46;;;;;;;7.40;5.00;;;;;;;3.48;100.00;98491.75;1223461;75;2922717;-63
2024/02/20 07:53:19;;;;;;;9.10;6.75;;;;;;;3.46;100.00;98491.38;1224377;75;2924198;-64
2024/02/20 07:55:52;;;;;;;9.10;6.25;;;;;;;3.87;100.00;98500.50;1224508;75;2929477;-65
2024/02/20 07:58:25;;;;;;;13.75;9.10;;;;;;;3.77;100.00;98489.41;1223390;75;2926738;-63
2024/02/20 08:00:57;;;;;;;10.45;7.20;;;;;;;4.08;100.00;98500.16;1223551;75;2924393;-63
2024/02/20 08:03:30;;;;;;;9.60;6.70;;;;;;;4.59;100.00;98491.97;1224202;75;2919774;-64
2024/02/20 08:06:06;;;;;;;7.05;5.15;;;;;;;4.78;100.00;98490.47;1222773;75;2926367;-65
2024/02/20 08:08:39;;;;;;;10.50;6.60;;;;;;;4.25;100.00;98514.63;1224270;75;2919821;-64
2024/02/20 08:11:12;;;;;;;11.95;7.95;;;;;;;4.37;100.00;98505.13;1224363;75;2931503;-65
2024/02/20 08:13:46;;;;;;;13.45;8.35;;;;;;;4.45;100.00;98509.28;1223617;75;2925414;-62
2024/02/20 08:16:20;;;;;;;12.70;7.60;;;;;;;4.81;100.00;98506.69;1224498;75;2918415;-65
2024/02/20 08:18:53;;;;;;;12.20;7.65;;;;;;;5.21;100.00;98514.09;1223662;75;2928985;-63
2024/02/20 08:21:28;;;;;;;9.80;6.80;;;;;;;5.99;100.00;98506.25;1222558;75;2923785;-63
2024/02/20 08:24:01;;;;;;;7.65;6.05;;;;;;;6.44;95.79;98502.06;1223918;75;2928316;-63
2024/02/20 08:26:34;;;;;;;12.85;6.60;;;;;;;6.52;96.79;98500.72;1223547;75;2927260;-65
2024/02/20 08:29:08;;;;;;;8.60;5.35;;;;;;;7.11;90.13;98499.53;1223988;75;2922184;-63
2024/02/20 08:31:44;;;;;;;10.00;4.70;;;;;;;7.93;83.79;98493.63;1223873;75;2923928;-63
2024/02/20 08:34:17;;;;;;;10.05;5.95;;;;;;;7.33;86.16;98494.22;1223446;75;2925486;-63
2024/02/20 08:36:52;;;;;;;7.65;4.25;;;;;;;7.59;85.43;98492.31;1224076;75;2924127;-64
2024/02/20 08:39:26;;;;;;;12.30;4.70;;;;;;;7.44;84.46;98488.50;1223584;75;2927339;-63
2024/02/20 08:41:59;;;;;;;6.10;3.80;;;;;;;8.14;82.27;98489.47;1223469;75;2935867;-64
2024/02/20 08:44:32;;;;;;;5.50;3.20;;;;;;;8.42;79.42;98487.81;1221789;75;2936737;-63
2024/02/20 08:47:05;;;;;;;7.85;3.30;;;;;;;7.82;81.52;98488.50;1223317;75;2927956;-64
2024/02/20 08:49:37;;;;;;;6.05;3.30;;;;;;;8.40;79.90;98486.72;1222629;75;2925036;-63
2024/02/20 08:52:14;;;;;;;4.55;2.70;;;;;;;8.20;77.10;98490.47;1223851;75;2920676;-60
2024/02/20 08:54:48;;;;;;;10.45;2.85;;;;;;;8.32;76.99;98489.66;1223607;75;2927070;-63
2024/02/20 08:57:20;;;;;;;7.30;2.60;;;;;;;8.23;77.20;98488.81;1223539;75;2928730;-62
2024/02/20 08:59:53;;;;;;;3.80;2.00;;;;;;;8.40;76.79;98492.19;1222747;75;2927556;-62
2024/02/20 09:02:26;;;;;;;11.65;2.60;;;;;;;8.23;77.06;98486.84;1223057;75;2925457;-64
2024/02/20 09:04:59;;;;;;;4.45;2.35;;;;;;;8.63;76.05;98488.28;1222861;75;2922669;-62
2024/02/20 09:07:35;;;;;;;4.45;2.50;;;;;;;8.95;74.83;98492.66;1223597;75;2933165;-63
2024/02/20 09:10:09;;;;;;;4.85;2.85;;;;;;;8.76;75.81;98494.47;1222802;75;2936079;-65
2024/02/20 09:12:42;;;;;;;5.10;2.90;;;;;;;8.68;75.82;98493.19;1223323;75;2927423;-63
2024/02/20 09:15:15;;;;;;;4.00;2.70;;;;;;;9.30;74.53;98487.88;1223580;75;2927331;-63
2024/02/20 09:17:48;;;;;;;4.20;2.65;;;;;;;9.52;73.92;98496.03;1224695;75;2907941;-63
2024/02/20 09:20:21;;;;;;;3.85;2.15;;;;;;;9.68;73.71;98497.03;1225151;75;2919950;-63
2024/02/20 09:22:56;;;;;;;3.60;2.30;;;;;;;10.31;72.27;98490.25;1223809;75;2919248;-64
2024/02/20 09:25:29;;;;;;;7.65;3.75;;;;;;;9.97;71.86;98485.75;1223516;75;2960889;-65
2024/02/20 09:28:02;;;;;;;6.75;3.70;;;;;;;9.93;70.59;98488.63;1224492;75;2919075;-62
2024/02/20 09:30:35;;;;;;;8.25;3.60;;;;;;;10.06;70.83;98490.50;1222923;75;2925519;-62
2024/02/20 09:33:08;;;;;;;7.40;4.25;;;;;;;10.62;69.04;98486.66;1223813;75;2913467;-64
2024/02/20 09:35:41;;;;;;;5.80;3.20;;;;;;;10.29;69.89;98495.44;1224579;75;2922995;-64
2024/02/20 09:38:17;;;;;;;8.80;2.85;;;;;;;9.94;71.02;98495.63;1223614;75;2923011;-65
2024/02/20 09:40:51;;;;;;;5.05;2.60;;;;;;;10.01;69.63;98495.34;1223284;75;2927400;-61
2024/02/20 09:43:24;;;;;;;6.70;2.25;;;;;;;10.11;69.56;98490.66;1224055;75;2922057;-64
2024/02/20 09:46:00;;;;;;;4.80;2.75;;;;;;;9.91;70.20;98487.53;1221926;75;2925888;-62
2024/02/20 09:48:33;;;;;;;6.15;2.85;;;;;;;9.96;71.25;98487.72;1224506;75;2928237;-64
2024/02/20 09:51:08;;;;;;;5.50;2.80;;;;;;;10.12;70.17;98491.41;1223160;75;2928702;-65
2024/02/20 09:53:44;;;;;;;4.10;2.75;;;;;;;9.84;71.60;98483.13;1224240;75;2924147;-63
2024/02/20 09:56:18;;;;;;;5.40;2.55;;;;;;;10.52;69.51;98485.13;1223434;75;2928359;-65
2024/02/20 09:58:51;;;;;;;5.10;2.25;;;;;;;11.03;65.49;98485.28;1224083;75;2927913;-63
2024/02/20 10:01:24;;;;;;;8.40;4.55;;;;;;;11.35;65.12;98490.56;1224152;75;2921845;-67
2024/02/20 10:04:04;;;;;;;7.50;4.75;;;;;;;12.43;63.42;98489.81;1223671;75;2927288;-64
2024/02/20 10:06:38;;;;;;;7.80;3.40;;;;;;;13.14;61.89;98488.19;1223389;75;2931156;-64
2024/02/20 10:09:13;;;;;;;5.10;3.35;;;;;;;13.33;60.60;98488.81;1223900;75;2924484;-62
2024/02/20 10:11:46;;;;;;;4.10;2.15;;;;;;;13.31;57.99;98485.75;1222677;75;2927754;-65
2024/02/20 10:14:28;;;;;;;3.35;1.80;;;;;;;14.17;56.24;98483.84;1224083;75;2925395;-63
2024/02/20 10:17:04;;;;;;;6.15;2.35;;;;;;;12.67;58.55;98480.81;1223022;75;2936250;-63
2024/02/20 10:19:37;;;;;;;3.20;1.80;;;;;;;13.82;56.92;98481.81;1222279;75;2924311;-63
2024/02/20 10:22:10;;;;;;;2.55;1.60;;;;;;;13.54;56.12;98477.88;1223337;75;2923778;-66
2024/02/20 10:24:45;;;;;;;2.95;1.80;;;;;;;14.03;56.60;98468.88;1224363;75;2919374;-66
2024/02/20 10:27:19;;;;;;;3.10;1.30;;;;;;;15.32;52.47;98474.38;1224109;75;2922807;-63
2024/02/20 10:29:51;;;;;;;4.10;1.50;;;;;;;15.75;51.57;98469.75;1223687;75;2922193;-66
2024/02/20 10:32:24;;;;;;;3.80;2.20;;;;;;;15.77;51.74;98474.75;1222670;75;2924460;-63
2024/02/20 10:35:02;;;;;;;5.30;2.05;;;;;;;16.11;51.43;98456.41;1223055;75;2924462;-65
2024/02/20 10:37:35;;;;;;;4.00;1.70;;;;;;;15.84;49.34;98463.28;1223112;75;2932653;-66
2024/02/20 10:40:13;;;;;;;2.90;1.45;;;;;;;16.41;48.97;98458.81;1224076;75;2918722;-67
2024/02/20 10:42:46;;;;;;;2.40;1.50;;;;;;;15.61;48.19;98458.81;1223171;75;2923473;-67
2024/02/20 10:45:19;;;;;;;4.45;1.50;;;;;;;16.09;47.86;98445.09;1223727;75;2923934;-65
2024/02/20 10:47:55;;;;;;;3.80;1.50;;;;;;;18.00;44.63;98449.50;1223060;75;2922544;-63
2024/02/20 10:50:29;;;;;;;2.20;1.10;;;;;;;17.78;43.85;98448.22;1223251;75;2926289;-65
2024/02/20 10:53:05;;;;;;;2.90;1.15;;;;;;;17.27;43.90;98449.50;1223481;75;2920530;-64
2024/02/20 10:55:42;;;;;;;1.80;1.20;;;;;;;17.77;43.36;98443.94;1223205;75;2928251;-65
2024/02/20 10:58:17;;;;;;;2.85;0.85;;;;;;;17.68;42.93;98439.44;1223978;75;2926976;-64
2024/02/20 11:00:53;;;;;;;1.60;0.80;;;;;;;18.62;40.82;98430.63;1223795;75;2919274;-66
2024/02/20 11:03:26;;;;;;;0.70;0.60;;;;;;;19.48;40.53;98432.34;1224589;75;2926515;-66
2024/02/20 11:06:01;;;;;;;0.85;0.65;;;;;;;17.34;41.89;98421.31;1223983;75;2918660;-65
2024/02/20 11:08:34;;;;;;;0.65;0.40;;;;;;;16.76;43.70;98418.97;1222853;75;2923636;-66
2024/02/20 11:11:18;;;;;;;0.95;0.45;;;;;;;17.85;43.37;98416.53;1222611;75;2912352;-63
2024/02/20 11:14:00;;;;;;;0.75;0.40;;;;;;;18.01;41.88;98410.16;1224015;75;2923523;-64
2024/02/20 11:16:38;;;;;;;2.80;0.60;;;;;;;16.76;44.69;98416.19;1224682;75;2924858;-66
2024/02/20 11:19:11;;;;;;;0.80;0.50;;;;;;;18.22;41.67;98410.63;1224986;75;2927721;-64
2024/02/20 11:21:44;;;;;;;0.30;0.20;;;;;;;18.34;41.15;98410.56;1224378;75;2920319;-63
2024/02/20 11:24:18;;;;;;;1.95;0.50;;;;;;;16.47;43.24;98404.31;1223957;75;2924433;-64
2024/02/20 11:27:06;;;;;;;0.20;0.20;;;;;;;16.45;43.55;98398.53;1224746;75;2923285;-64
2024/02/20 11:29:39;;;;;;;1.30;0.30;;;;;;;15.71;44.68;98391.91;1224599;75;2919829;-64
2024/02/20 11:32:16;;;;;;;2.45;0.70;;;;;;;16.09;45.06;98380.81;1223380;75;2930099;-63
2024/02/20 11:34:50;;;;;;;0.40;0.30;;;;;;;17.56;41.59;98377.03;1224722;75;2920588;-64
2024/02/20 11:37:23;;;;;;;1.15;0.30;;;;;;;18.62;41.85;98366.09;1224346;75;2923734;-65
2024/02/20 11:39:57;;;;;;;1.35;0.65;;;;;;;18.12;41.52;98362.28;1223650;75;2925211;-64
2024/02/20 11:42:32;;;;;;;1.45;0.50;;;;;;;18.22;41.15;98363.50;1223643;75;2920015;-63
2024/02/20 11:45:05;;;;;;;1.05;0.40;;;;;;;19.44;40.10;98365.22;1224300;75;2921563;-63
2024/02/20 11:47:38;;;;;;;0.55;0.30;;;;;;;20.57;38.10;98361.19;1223755;75;2922426;-63